sensor_id;sensor_type;location;lat;lon;timestamp;temperature;humidity
13589;DHT22;6865;52.552;13.434;2023-11-21T00:02:17;7.00;99.90
13589;DHT22;6865;52.552;13.434;2023-11-21T00:04:44;7.20;99.90
13589;DHT22;6865;52.552;13.434;2023-11-21T00:07:12;7.40;99.90
13589;DHT22;6865;52.552;13.434;2023-11-21T00:09:38;7.60;99.90
13589;DHT22;6865;52.552;13.434;2023-11-21T00:12:05;7.30;99.90
13589;DHT22;6865;52.552;13.434;2023-11-21T00:14:32;7.30;99.90
13589;DHT22;6865;52.552;13.434;2023-11-21T00:16:59;7.30;99.90
13589;DHT22;6865;52.552;13.434;2023-11-21T00:19:26;7.30;99.90
13589;DHT22;6865;52.552;13.434;2023-11-21T00:21:53;7.30;99.90
13589;DHT22;6865;52.552;13.434;2023-11-21T00:24:19;7.30;99.90
13589;DHT22;6865;52.552;13.434;2023-11-21T00:26:46;7.20;99.90
13589;DHT22;6865;52.552;13.434;2023-11-21T00:29:15;7.30;99.90
13589;DHT22;6865;52.552;13.434;2023-11-21T00:31:44;7.30;99.90
13589;DHT22;6865;52.552;13.434;2023-11-21T00:34:12;7.20;99.90
13589;DHT22;6865;52.552;13.434;2023-11-21T00:36:39;7.20;99.90
13589;DHT22;6865;52.552;13.434;2023-11-21T00:39:06;7.10;99.90
13589;DHT22;6865;52.552;13.434;2023-11-21T00:41:34;7.10;99.90
13589;DHT22;6865;52.552;13.434;2023-11-21T00:44:00;7.10;99.90
13589;DHT22;6865;52.552;13.434;2023-11-21T00:46:27;7.00;99.90
13589;DHT22;6865;52.552;13.434;2023-11-21T00:48:55;7.00;99.90
13589;DHT22;6865;52.552;13.434;2023-11-21T00:51:22;6.90;99.90
13589;DHT22;6865;52.552;13.434;2023-11-21T00:53:49;6.40;99.90
13589;DHT22;6865;52.552;13.434;2023-11-21T00:56:16;7.30;99.90
13589;DHT22;6865;52.552;13.434;2023-11-21T00:58:42;6.80;99.90
13589;DHT22;6865;52.552;13.434;2023-11-21T01:01:13;6.80;99.90
13589;DHT22;6865;52.552;13.434;2023-11-21T01:03:39;7.00;99.90
13589;DHT22;6865;52.552;13.434;2023-11-21T01:06:07;6.90;99.90
13589;DHT22;6865;52.552;13.434;2023-11-21T01:08:34;6.80;99.90
13589;DHT22;6865;52.552;13.434;2023-11-21T01:11:01;6.80;99.90
13589;DHT22;6865;52.552;13.434;2023-11-21T01:13:27;6.80;99.90
13589;DHT22;6865;52.552;13.434;2023-11-21T01:15:55;6.80;99.90
13589;DHT22;6865;52.552;13.434;2023-11-21T01:18:22;6.70;99.90
13589;DHT22;6865;52.552;13.434;2023-11-21T01:20:49;6.70;99.90
13589;DHT22;6865;52.552;13.434;2023-11-21T01:23:15;6.70;99.90
13589;DHT22;6865;52.552;13.434;2023-11-21T01:25:42;6.70;99.90
13589;DHT22;6865;52.552;13.434;2023-11-21T01:28:09;6.80;99.90
13589;DHT22;6865;52.552;13.434;2023-11-21T01:30:35;6.80;99.90
13589;DHT22;6865;52.552;13.434;2023-11-21T01:33:02;6.70;99.90
13589;DHT22;6865;52.552;13.434;2023-11-21T01:35:29;6.70;99.90
13589;DHT22;6865;52.552;13.434;2023-11-21T01:37:56;6.60;99.90
13589;DHT22;6865;52.552;13.434;2023-11-21T01:40:23;6.50;99.90
13589;DHT22;6865;52.552;13.434;2023-11-21T01:42:52;6.50;99.90
13589;DHT22;6865;52.552;13.434;2023-11-21T01:45:19;6.50;99.90
13589;DHT22;6865;52.552;13.434;2023-11-21T01:47:46;6.50;99.90
13589;DHT22;6865;52.552;13.434;2023-11-21T01:50:16;6.40;99.90
13589;DHT22;6865;52.552;13.434;2023-11-21T01:52:45;6.70;99.90
13589;DHT22;6865;52.552;13.434;2023-11-21T01:55:15;6.40;99.90
13589;DHT22;6865;52.552;13.434;2023-11-21T01:57:53;6.40;99.90
13589;DHT22;6865;52.552;13.434;2023-11-21T02:00:20;6.40;99.90
13589;DHT22;6865;52.552;13.434;2023-11-21T02:02:48;6.40;99.90
13589;DHT22;6865;52.552;13.434;2023-11-21T02:05:16;6.30;99.90
13589;DHT22;6865;52.552;13.434;2023-11-21T02:07:45;6.30;99.90
13589;DHT22;6865;52.552;13.434;2023-11-21T02:10:15;6.30;99.90
13589;DHT22;6865;52.552;13.434;2023-11-21T02:12:42;6.30;99.90
13589;DHT22;6865;52.552;13.434;2023-11-21T02:15:13;6.30;99.90
13589;DHT22;6865;52.552;13.434;2023-11-21T02:17:53;6.30;99.90
13589;DHT22;6865;52.552;13.434;2023-11-21T02:20:22;6.30;99.90
13589;DHT22;6865;52.552;13.434;2023-11-21T02:22:50;6.30;99.90
13589;DHT22;6865;52.552;13.434;2023-11-21T02:25:29;6.30;99.90
13589;DHT22;6865;52.552;13.434;2023-11-21T02:27:57;6.20;99.90
13589;DHT22;6865;52.552;13.434;2023-11-21T02:30:24;6.20;99.90
13589;DHT22;6865;52.552;13.434;2023-11-21T02:32:59;6.20;99.90
13589;DHT22;6865;52.552;13.434;2023-11-21T02:35:27;6.20;99.90
13589;DHT22;6865;52.552;13.434;2023-11-21T02:37:54;6.20;99.90
13589;DHT22;6865;52.552;13.434;2023-11-21T02:40:21;6.20;99.90
13589;DHT22;6865;52.552;13.434;2023-11-21T02:42:48;6.20;99.90
13589;DHT22;6865;52.552;13.434;2023-11-21T02:45:21;6.20;99.90
13589;DHT22;6865;52.552;13.434;2023-11-21T02:47:49;6.20;99.90
13589;DHT22;6865;52.552;13.434;2023-11-21T02:50:16;6.20;99.90
13589;DHT22;6865;52.552;13.434;2023-11-21T02:52:45;6.10;99.90
13589;DHT22;6865;52.552;13.434;2023-11-21T02:55:12;6.10;99.90
13589;DHT22;6865;52.552;13.434;2023-11-21T02:57:39;6.10;99.90
13589;DHT22;6865;52.552;13.434;2023-11-21T03:00:06;6.10;99.90
13589;DHT22;6865;52.552;13.434;2023-11-21T03:02:42;6.10;99.90
13589;DHT22;6865;52.552;13.434;2023-11-21T03:05:10;5.70;99.90
13589;DHT22;6865;52.552;13.434;2023-11-21T03:07:37;6.10;99.90
13589;DHT22;6865;52.552;13.434;2023-11-21T03:10:08;6.10;99.90
13589;DHT22;6865;52.552;13.434;2023-11-21T03:12:41;6.10;99.90
13589;DHT22;6865;52.552;13.434;2023-11-21T03:15:08;6.10;99.90
13589;DHT22;6865;52.552;13.434;2023-11-21T03:17:35;6.20;99.90
13589;DHT22;6865;52.552;13.434;2023-11-21T03:20:03;6.10;99.90
13589;DHT22;6865;52.552;13.434;2023-11-21T03:22:30;6.10;99.90
13589;DHT22;6865;52.552;13.434;2023-11-21T03:24:57;6.10;99.90
13589;DHT22;6865;52.552;13.434;2023-11-21T03:27:24;6.10;99.90
13589;DHT22;6865;52.552;13.434;2023-11-21T03:29:51;6.10;99.90
13589;DHT22;6865;52.552;13.434;2023-11-21T03:32:18;6.00;99.90
13589;DHT22;6865;52.552;13.434;2023-11-21T03:34:58;6.00;99.90
13589;DHT22;6865;52.552;13.434;2023-11-21T03:37:26;6.00;99.90
13589;DHT22;6865;52.552;13.434;2023-11-21T03:39:55;6.00;99.90
13589;DHT22;6865;52.552;13.434;2023-11-21T03:42:23;6.00;99.90
13589;DHT22;6865;52.552;13.434;2023-11-21T03:44:52;6.00;99.90
13589;DHT22;6865;52.552;13.434;2023-11-21T03:47:19;5.70;99.90
13589;DHT22;6865;52.552;13.434;2023-11-21T03:49:46;5.90;99.90
13589;DHT22;6865;52.552;13.434;2023-11-21T03:52:13;5.90;99.90
13589;DHT22;6865;52.552;13.434;2023-11-21T03:54:39;5.80;99.90
13589;DHT22;6865;52.552;13.434;2023-11-21T03:57:06;5.80;99.90
13589;DHT22;6865;52.552;13.434;2023-11-21T03:59:33;5.80;99.90
13589;DHT22;6865;52.552;13.434;2023-11-21T04:01:59;5.80;99.90
13589;DHT22;6865;52.552;13.434;2023-11-21T04:04:26;5.80;99.90
13589;DHT22;6865;52.552;13.434;2023-11-21T04:06:53;5.80;99.90
13589;DHT22;6865;52.552;13.434;2023-11-21T04:09:20;5.80;99.90
13589;DHT22;6865;52.552;13.434;2023-11-21T04:11:46;5.80;99.90
13589;DHT22;6865;52.552;13.434;2023-11-21T04:14:13;5.70;99.90
13589;DHT22;6865;52.552;13.434;2023-11-21T04:16:40;4.20;99.90
13589;DHT22;6865;52.552;13.434;2023-11-21T04:19:08;5.70;99.90
13589;DHT22;6865;52.552;13.434;2023-11-21T04:21:37;5.70;99.90
13589;DHT22;6865;52.552;13.434;2023-11-21T04:24:04;5.70;99.90
13589;DHT22;6865;52.552;13.434;2023-11-21T04:26:31;5.70;99.90
13589;DHT22;6865;52.552;13.434;2023-11-21T04:28:58;5.70;99.90
13589;DHT22;6865;52.552;13.434;2023-11-21T04:31:25;5.70;99.90
13589;DHT22;6865;52.552;13.434;2023-11-21T04:33:52;5.70;99.90
13589;DHT22;6865;52.552;13.434;2023-11-21T04:36:19;5.70;99.90
13589;DHT22;6865;52.552;13.434;2023-11-21T04:38:46;5.70;99.90
13589;DHT22;6865;52.552;13.434;2023-11-21T04:41:13;5.70;99.90
13589;DHT22;6865;52.552;13.434;2023-11-21T04:43:39;5.40;99.90
13589;DHT22;6865;52.552;13.434;2023-11-21T04:46:06;5.70;99.90
13589;DHT22;6865;52.552;13.434;2023-11-21T04:48:33;5.70;99.90
13589;DHT22;6865;52.552;13.434;2023-11-21T04:51:00;6.00;99.90
13589;DHT22;6865;52.552;13.434;2023-11-21T04:53:27;5.70;99.90
13589;DHT22;6865;52.552;13.434;2023-11-21T04:55:53;5.70;99.90
13589;DHT22;6865;52.552;13.434;2023-11-21T04:58:20;5.70;99.90
13589;DHT22;6865;52.552;13.434;2023-11-21T05:00:47;5.60;99.90
13589;DHT22;6865;52.552;13.434;2023-11-21T05:03:14;5.60;99.90
13589;DHT22;6865;52.552;13.434;2023-11-21T05:05:41;5.60;99.90
13589;DHT22;6865;52.552;13.434;2023-11-21T05:08:07;5.60;99.90
13589;DHT22;6865;52.552;13.434;2023-11-21T05:10:34;5.60;99.90
13589;DHT22;6865;52.552;13.434;2023-11-21T05:13:04;5.60;99.90
13589;DHT22;6865;52.552;13.434;2023-11-21T05:15:36;5.60;99.90
13589;DHT22;6865;52.552;13.434;2023-11-21T05:18:04;5.60;99.90
13589;DHT22;6865;52.552;13.434;2023-11-21T05:20:32;5.60;99.90
13589;DHT22;6865;52.552;13.434;2023-11-21T05:22:59;5.60;99.90
13589;DHT22;6865;52.552;13.434;2023-11-21T05:25:26;5.60;99.90
13589;DHT22;6865;52.552;13.434;2023-11-21T05:27:53;5.60;99.90
13589;DHT22;6865;52.552;13.434;2023-11-21T05:30:21;5.60;99.90
13589;DHT22;6865;52.552;13.434;2023-11-21T05:32:48;5.50;99.90
13589;DHT22;6865;52.552;13.434;2023-11-21T05:35:16;5.50;99.90
13589;DHT22;6865;52.552;13.434;2023-11-21T05:37:47;5.50;99.90
13589;DHT22;6865;52.552;13.434;2023-11-21T05:40:14;5.50;99.90
13589;DHT22;6865;52.552;13.434;2023-11-21T05:42:41;5.50;99.90
13589;DHT22;6865;52.552;13.434;2023-11-21T05:45:08;5.50;99.90
13589;DHT22;6865;52.552;13.434;2023-11-21T05:47:41;5.50;99.90
13589;DHT22;6865;52.552;13.434;2023-11-21T05:50:10;5.50;99.90
13589;DHT22;6865;52.552;13.434;2023-11-21T05:52:39;5.50;99.90
13589;DHT22;6865;52.552;13.434;2023-11-21T05:55:09;5.50;99.90
13589;DHT22;6865;52.552;13.434;2023-11-21T05:57:37;5.50;99.90
13589;DHT22;6865;52.552;13.434;2023-11-21T06:00:09;5.50;99.90
13589;DHT22;6865;52.552;13.434;2023-11-21T06:02:45;5.50;99.90
13589;DHT22;6865;52.552;13.434;2023-11-21T06:05:11;5.50;99.90
13589;DHT22;6865;52.552;13.434;2023-11-21T06:07:38;5.40;99.90
13589;DHT22;6865;52.552;13.434;2023-11-21T06:10:08;5.50;99.90
13589;DHT22;6865;52.552;13.434;2023-11-21T06:12:39;5.40;99.90
13589;DHT22;6865;52.552;13.434;2023-11-21T06:15:07;5.40;99.90
13589;DHT22;6865;52.552;13.434;2023-11-21T06:17:36;5.30;99.90
13589;DHT22;6865;52.552;13.434;2023-11-21T06:20:04;5.30;99.90
13589;DHT22;6865;52.552;13.434;2023-11-21T06:22:42;5.30;99.90
13589;DHT22;6865;52.552;13.434;2023-11-21T06:25:11;5.30;99.90
13589;DHT22;6865;52.552;13.434;2023-11-21T06:27:43;5.40;99.90
13589;DHT22;6865;52.552;13.434;2023-11-21T06:30:17;5.30;99.90
13589;DHT22;6865;52.552;13.434;2023-11-21T06:32:46;5.30;99.90
13589;DHT22;6865;52.552;13.434;2023-11-21T06:35:14;5.30;99.90
13589;DHT22;6865;52.552;13.434;2023-11-21T06:37:43;5.30;99.90
13589;DHT22;6865;52.552;13.434;2023-11-21T06:40:14;5.30;99.90
13589;DHT22;6865;52.552;13.434;2023-11-21T06:42:48;5.30;99.90
13589;DHT22;6865;52.552;13.434;2023-11-21T06:45:16;5.30;99.90
13589;DHT22;6865;52.552;13.434;2023-11-21T06:47:43;5.20;99.90
13589;DHT22;6865;52.552;13.434;2023-11-21T06:50:10;5.20;99.90
13589;DHT22;6865;52.552;13.434;2023-11-21T06:52:37;5.20;99.90
13589;DHT22;6865;52.552;13.434;2023-11-21T06:55:05;5.20;99.90
13589;DHT22;6865;52.552;13.434;2023-11-21T06:57:35;5.20;99.90
13589;DHT22;6865;52.552;13.434;2023-11-21T07:00:02;5.20;99.90
13589;DHT22;6865;52.552;13.434;2023-11-21T07:02:29;5.20;99.90
13589;DHT22;6865;52.552;13.434;2023-11-21T07:04:56;5.20;99.90
13589;DHT22;6865;52.552;13.434;2023-11-21T07:07:22;5.20;99.90
13589;DHT22;6865;52.552;13.434;2023-11-21T07:09:49;5.10;99.90
13589;DHT22;6865;52.552;13.434;2023-11-21T07:12:16;4.70;99.90
13589;DHT22;6865;52.552;13.434;2023-11-21T07:14:42;5.10;99.90
13589;DHT22;6865;52.552;13.434;2023-11-21T07:17:11;5.10;99.90
13589;DHT22;6865;52.552;13.434;2023-11-21T07:19:38;5.20;99.90
13589;DHT22;6865;52.552;13.434;2023-11-21T07:22:06;5.20;99.90
13589;DHT22;6865;52.552;13.434;2023-11-21T07:24:32;5.10;99.90
13589;DHT22;6865;52.552;13.434;2023-11-21T07:26:59;5.10;99.90
13589;DHT22;6865;52.552;13.434;2023-11-21T07:29:27;5.10;99.90
13589;DHT22;6865;52.552;13.434;2023-11-21T07:31:56;5.20;99.90
13589;DHT22;6865;52.552;13.434;2023-11-21T07:34:23;5.20;99.90
13589;DHT22;6865;52.552;13.434;2023-11-21T07:36:49;5.20;99.90
13589;DHT22;6865;52.552;13.434;2023-11-21T07:39:16;5.20;99.90
13589;DHT22;6865;52.552;13.434;2023-11-21T07:41:43;5.20;99.90
13589;DHT22;6865;52.552;13.434;2023-11-21T07:44:16;5.20;99.90
13589;DHT22;6865;52.552;13.434;2023-11-21T07:46:44;5.30;99.90
13589;DHT22;6865;52.552;13.434;2023-11-21T07:49:11;5.20;99.90
13589;DHT22;6865;52.552;13.434;2023-11-21T07:51:38;5.30;99.90
13589;DHT22;6865;52.552;13.434;2023-11-21T07:54:05;5.30;99.90
13589;DHT22;6865;52.552;13.434;2023-11-21T07:56:32;5.30;99.90
13589;DHT22;6865;52.552;13.434;2023-11-21T07:58:58;5.30;99.90
13589;DHT22;6865;52.552;13.434;2023-11-21T08:01:25;4.90;99.90
13589;DHT22;6865;52.552;13.434;2023-11-21T08:03:54;5.30;99.90
13589;DHT22;6865;52.552;13.434;2023-11-21T08:06:23;5.20;99.90
13589;DHT22;6865;52.552;13.434;2023-11-21T08:08:52;5.40;99.90
13589;DHT22;6865;52.552;13.434;2023-11-21T08:11:18;5.40;99.90
13589;DHT22;6865;52.552;13.434;2023-11-21T08:13:47;5.30;99.90
13589;DHT22;6865;52.552;13.434;2023-11-21T08:16:15;5.30;99.90
13589;DHT22;6865;52.552;13.434;2023-11-21T08:18:41;5.30;99.90
13589;DHT22;6865;52.552;13.434;2023-11-21T08:21:08;5.40;99.90
13589;DHT22;6865;52.552;13.434;2023-11-21T08:23:35;5.40;99.90
13589;DHT22;6865;52.552;13.434;2023-11-21T08:26:01;5.50;99.90
13589;DHT22;6865;52.552;13.434;2023-11-21T08:28:32;5.40;99.90
13589;DHT22;6865;52.552;13.434;2023-11-21T08:31:00;5.40;99.90
13589;DHT22;6865;52.552;13.434;2023-11-21T08:33:27;5.40;99.90
13589;DHT22;6865;52.552;13.434;2023-11-21T08:35:54;5.40;99.90
13589;DHT22;6865;52.552;13.434;2023-11-21T08:38:21;5.40;99.90
13589;DHT22;6865;52.552;13.434;2023-11-21T08:40:48;5.50;99.90
13589;DHT22;6865;52.552;13.434;2023-11-21T08:43:14;5.50;99.90
13589;DHT22;6865;52.552;13.434;2023-11-21T08:45:42;5.50;99.90
13589;DHT22;6865;52.552;13.434;2023-11-21T08:48:09;5.50;99.90
13589;DHT22;6865;52.552;13.434;2023-11-21T08:50:38;5.50;99.90
13589;DHT22;6865;52.552;13.434;2023-11-21T08:53:04;5.50;99.90
13589;DHT22;6865;52.552;13.434;2023-11-21T08:55:32;5.40;99.90
13589;DHT22;6865;52.552;13.434;2023-11-21T08:58:04;5.50;99.90
13589;DHT22;6865;52.552;13.434;2023-11-21T09:00:32;5.50;99.90
13589;DHT22;6865;52.552;13.434;2023-11-21T09:03:01;5.50;99.90
13589;DHT22;6865;52.552;13.434;2023-11-21T09:05:28;5.50;99.90
13589;DHT22;6865;52.552;13.434;2023-11-21T09:07:54;5.50;99.90
13589;DHT22;6865;52.552;13.434;2023-11-21T09:10:21;5.30;99.90
13589;DHT22;6865;52.552;13.434;2023-11-21T09:12:48;5.40;99.90
13589;DHT22;6865;52.552;13.434;2023-11-21T09:15:15;5.30;99.90
13589;DHT22;6865;52.552;13.434;2023-11-21T09:17:41;5.30;99.90
13589;DHT22;6865;52.552;13.434;2023-11-21T09:20:09;5.30;99.90
13589;DHT22;6865;52.552;13.434;2023-11-21T09:22:37;5.20;99.90
13589;DHT22;6865;52.552;13.434;2023-11-21T09:25:05;5.30;99.90
13589;DHT22;6865;52.552;13.434;2023-11-21T09:27:31;5.20;99.90
13589;DHT22;6865;52.552;13.434;2023-11-21T09:29:58;5.20;99.90
13589;DHT22;6865;52.552;13.434;2023-11-21T09:32:25;5.20;99.90
13589;DHT22;6865;52.552;13.434;2023-11-21T09:34:51;5.30;99.90
13589;DHT22;6865;52.552;13.434;2023-11-21T09:37:19;5.40;99.90
13589;DHT22;6865;52.552;13.434;2023-11-21T09:39:46;5.40;99.90
13589;DHT22;6865;52.552;13.434;2023-11-21T09:42:25;5.50;99.90
13589;DHT22;6865;52.552;13.434;2023-11-21T09:45:01;5.50;99.90
13589;DHT22;6865;52.552;13.434;2023-11-21T09:47:32;5.70;99.90
13589;DHT22;6865;52.552;13.434;2023-11-21T09:50:01;5.60;99.90
13589;DHT22;6865;52.552;13.434;2023-11-21T09:52:28;5.50;99.90
13589;DHT22;6865;52.552;13.434;2023-11-21T09:54:55;5.40;99.90
13589;DHT22;6865;52.552;13.434;2023-11-21T09:57:25;5.40;99.90
13589;DHT22;6865;52.552;13.434;2023-11-21T09:59:53;5.30;99.90
13589;DHT22;6865;52.552;13.434;2023-11-21T10:02:27;5.30;99.90
13589;DHT22;6865;52.552;13.434;2023-11-21T10:04:56;5.40;99.90
13589;DHT22;6865;52.552;13.434;2023-11-21T10:07:23;5.30;99.90
13589;DHT22;6865;52.552;13.434;2023-11-21T10:09:51;5.60;99.90
13589;DHT22;6865;52.552;13.434;2023-11-21T10:12:19;5.30;99.90
13589;DHT22;6865;52.552;13.434;2023-11-21T10:14:49;5.20;99.90
13589;DHT22;6865;52.552;13.434;2023-11-21T10:17:17;5.20;99.90
13589;DHT22;6865;52.552;13.434;2023-11-21T10:19:48;5.10;99.90
13589;DHT22;6865;52.552;13.434;2023-11-21T10:22:15;5.20;99.90
13589;DHT22;6865;52.552;13.434;2023-11-21T10:24:43;5.20;99.90
13589;DHT22;6865;52.552;13.434;2023-11-21T10:27:19;5.20;99.90
13589;DHT22;6865;52.552;13.434;2023-11-21T10:29:46;5.10;99.90
13589;DHT22;6865;52.552;13.434;2023-11-21T10:32:12;5.10;99.90
13589;DHT22;6865;52.552;13.434;2023-11-21T10:34:39;5.10;99.90
13589;DHT22;6865;52.552;13.434;2023-11-21T10:37:12;5.10;99.90
13589;DHT22;6865;52.552;13.434;2023-11-21T10:39:39;5.10;99.90
13589;DHT22;6865;52.552;13.434;2023-11-21T10:42:08;5.00;99.90
13589;DHT22;6865;52.552;13.434;2023-11-21T10:44:35;5.00;99.90
13589;DHT22;6865;52.552;13.434;2023-11-21T10:47:02;5.00;99.90
13589;DHT22;6865;52.552;13.434;2023-11-21T10:49:29;5.00;99.90
13589;DHT22;6865;52.552;13.434;2023-11-21T10:51:56;5.00;99.90
13589;DHT22;6865;52.552;13.434;2023-11-21T10:54:24;4.90;99.90
13589;DHT22;6865;52.552;13.434;2023-11-21T10:57:00;5.00;99.90
13589;DHT22;6865;52.552;13.434;2023-11-21T10:59:31;4.90;99.90
13589;DHT22;6865;52.552;13.434;2023-11-21T11:02:01;4.90;99.90
13589;DHT22;6865;52.552;13.434;2023-11-21T11:04:30;4.80;99.90
13589;DHT22;6865;52.552;13.434;2023-11-21T11:07:02;4.80;99.90
13589;DHT22;6865;52.552;13.434;2023-11-21T11:09:32;4.90;99.90
13589;DHT22;6865;52.552;13.434;2023-11-21T11:12:02;4.80;99.90
13589;DHT22;6865;52.552;13.434;2023-11-21T11:14:32;4.90;99.90
13589;DHT22;6865;52.552;13.434;2023-11-21T11:16:58;4.90;99.90
13589;DHT22;6865;52.552;13.434;2023-11-21T11:19:27;4.90;99.90
13589;DHT22;6865;52.552;13.434;2023-11-21T11:22:17;4.80;99.90
13589;DHT22;6865;52.552;13.434;2023-11-21T11:25:03;4.80;99.90
13589;DHT22;6865;52.552;13.434;2023-11-21T11:28:01;4.80;99.90
13589;DHT22;6865;52.552;13.434;2023-11-21T11:33:51;4.70;99.90
13589;DHT22;6865;52.552;13.434;2023-11-21T11:36:29;4.80;99.90
13589;DHT22;6865;52.552;13.434;2023-11-21T11:38:58;4.70;99.90
13589;DHT22;6865;52.552;13.434;2023-11-21T11:41:30;4.50;99.90
13589;DHT22;6865;52.552;13.434;2023-11-21T11:44:00;4.70;99.90
13589;DHT22;6865;52.552;13.434;2023-11-21T11:46:44;4.70;99.90
13589;DHT22;6865;52.552;13.434;2023-11-21T11:49:24;4.70;99.90
13589;DHT22;6865;52.552;13.434;2023-11-21T11:52:32;4.80;99.90
13589;DHT22;6865;52.552;13.434;2023-11-21T11:55:00;4.80;99.90
13589;DHT22;6865;52.552;13.434;2023-11-21T11:57:33;4.70;99.90
13589;DHT22;6865;52.552;13.434;2023-11-21T12:00:21;4.70;99.90
13589;DHT22;6865;52.552;13.434;2023-11-21T12:03:02;4.70;99.90
13589;DHT22;6865;52.552;13.434;2023-11-21T12:05:32;4.70;99.90
13589;DHT22;6865;52.552;13.434;2023-11-21T12:08:03;4.70;99.90
13589;DHT22;6865;52.552;13.434;2023-11-21T12:10:35;4.70;99.90
13589;DHT22;6865;52.552;13.434;2023-11-21T12:13:11;4.70;99.90
13589;DHT22;6865;52.552;13.434;2023-11-21T12:15:41;4.70;99.90
13589;DHT22;6865;52.552;13.434;2023-11-21T12:18:08;4.70;99.90
13589;DHT22;6865;52.552;13.434;2023-11-21T12:20:36;4.60;99.90
13589;DHT22;6865;52.552;13.434;2023-11-21T12:23:06;4.60;99.90
13589;DHT22;6865;52.552;13.434;2023-11-21T12:25:35;4.60;99.90
13589;DHT22;6865;52.552;13.434;2023-11-21T12:28:03;4.50;99.90
13589;DHT22;6865;52.552;13.434;2023-11-21T12:30:33;4.80;99.90
13589;DHT22;6865;52.552;13.434;2023-11-21T12:33:02;4.50;99.90
13589;DHT22;6865;52.552;13.434;2023-11-21T12:35:34;4.50;99.90
13589;DHT22;6865;52.552;13.434;2023-11-21T12:38:03;4.60;99.90
13589;DHT22;6865;52.552;13.434;2023-11-21T12:40:29;4.60;99.90
13589;DHT22;6865;52.552;13.434;2023-11-21T12:42:57;4.60;99.90
13589;DHT22;6865;52.552;13.434;2023-11-21T12:45:26;4.60;99.90
13589;DHT22;6865;52.552;13.434;2023-11-21T12:48:05;4.00;99.90
13589;DHT22;6865;52.552;13.434;2023-11-21T12:50:36;4.50;99.90
13589;DHT22;6865;52.552;13.434;2023-11-21T12:53:05;4.40;99.90
13589;DHT22;6865;52.552;13.434;2023-11-21T12:55:33;4.40;99.90
13589;DHT22;6865;52.552;13.434;2023-11-21T12:58:07;4.40;99.90
13589;DHT22;6865;52.552;13.434;2023-11-21T13:00:44;4.40;99.90
13589;DHT22;6865;52.552;13.434;2023-11-21T13:03:13;4.40;99.90
13589;DHT22;6865;52.552;13.434;2023-11-21T13:05:47;4.30;99.90
13589;DHT22;6865;52.552;13.434;2023-11-21T13:08:19;4.40;99.90
13589;DHT22;6865;52.552;13.434;2023-11-21T13:10:50;4.40;99.90
13589;DHT22;6865;52.552;13.434;2023-11-21T13:13:18;4.30;99.90
13589;DHT22;6865;52.552;13.434;2023-11-21T13:15:59;4.30;99.90
13589;DHT22;6865;52.552;13.434;2023-11-21T13:18:32;4.30;99.90
13589;DHT22;6865;52.552;13.434;2023-11-21T13:21:03;4.30;99.90
13589;DHT22;6865;52.552;13.434;2023-11-21T13:23:36;4.20;99.90
13589;DHT22;6865;52.552;13.434;2023-11-21T13:26:04;3.70;99.90
13589;DHT22;6865;52.552;13.434;2023-11-21T13:28:33;4.10;99.90
13589;DHT22;6865;52.552;13.434;2023-11-21T13:31:02;4.20;99.90
13589;DHT22;6865;52.552;13.434;2023-11-21T13:33:37;4.20;99.90
13589;DHT22;6865;52.552;13.434;2023-11-21T13:36:09;4.20;99.90
13589;DHT22;6865;52.552;13.434;2023-11-21T13:38:38;4.20;99.90
13589;DHT22;6865;52.552;13.434;2023-11-21T13:41:09;4.10;99.90
13589;DHT22;6865;52.552;13.434;2023-11-21T13:43:37;4.10;99.90
13589;DHT22;6865;52.552;13.434;2023-11-21T13:46:04;4.10;99.90
13589;DHT22;6865;52.552;13.434;2023-11-21T13:48:40;4.10;99.90
13589;DHT22;6865;52.552;13.434;2023-11-21T13:51:17;4.10;99.90
13589;DHT22;6865;52.552;13.434;2023-11-21T13:53:45;4.10;99.90
13589;DHT22;6865;52.552;13.434;2023-11-21T13:56:17;4.00;99.90
13589;DHT22;6865;52.552;13.434;2023-11-21T13:58:47;4.00;99.90
13589;DHT22;6865;52.552;13.434;2023-11-21T14:01:18;4.00;99.90
13589;DHT22;6865;52.552;13.434;2023-11-21T14:03:58;4.40;99.90
13589;DHT22;6865;52.552;13.434;2023-11-21T14:06:45;3.90;99.90
13589;DHT22;6865;52.552;13.434;2023-11-21T14:09:16;3.80;99.90
13589;DHT22;6865;52.552;13.434;2023-11-21T14:11:54;3.80;99.90
13589;DHT22;6865;52.552;13.434;2023-11-21T14:14:25;3.70;99.90
13589;DHT22;6865;52.552;13.434;2023-11-21T14:16:53;3.70;99.90
13589;DHT22;6865;52.552;13.434;2023-11-21T14:19:20;3.60;99.90
13589;DHT22;6865;52.552;13.434;2023-11-21T14:21:47;3.60;99.90
13589;DHT22;6865;52.552;13.434;2023-11-21T14:24:17;3.50;99.90
13589;DHT22;6865;52.552;13.434;2023-11-21T14:26:46;5.30;99.90
13589;DHT22;6865;52.552;13.434;2023-11-21T14:29:14;3.30;99.90
13589;DHT22;6865;52.552;13.434;2023-11-21T14:31:43;3.40;99.90
13589;DHT22;6865;52.552;13.434;2023-11-21T14:34:10;3.40;99.90
13589;DHT22;6865;52.552;13.434;2023-11-21T14:36:38;3.30;99.90
13589;DHT22;6865;52.552;13.434;2023-11-21T14:39:06;3.40;99.90
13589;DHT22;6865;52.552;13.434;2023-11-21T14:41:35;3.30;99.90
13589;DHT22;6865;52.552;13.434;2023-11-21T14:44:04;3.30;99.90
13589;DHT22;6865;52.552;13.434;2023-11-21T14:46:34;3.30;99.90
13589;DHT22;6865;52.552;13.434;2023-11-21T14:49:03;3.30;99.90
13589;DHT22;6865;52.552;13.434;2023-11-21T14:51:47;3.20;99.90
13589;DHT22;6865;52.552;13.434;2023-11-21T14:54:28;3.10;99.90
13589;DHT22;6865;52.552;13.434;2023-11-21T14:57:13;3.20;99.90
13589;DHT22;6865;52.552;13.434;2023-11-21T14:59:48;3.20;99.90
13589;DHT22;6865;52.552;13.434;2023-11-21T15:02:19;3.20;99.90
13589;DHT22;6865;52.552;13.434;2023-11-21T15:05:10;3.20;99.90
13589;DHT22;6865;52.552;13.434;2023-11-21T15:07:44;3.10;99.90
13589;DHT22;6865;52.552;13.434;2023-11-21T15:10:12;3.20;99.90
13589;DHT22;6865;52.552;13.434;2023-11-21T15:12:42;3.10;99.90
13589;DHT22;6865;52.552;13.434;2023-11-21T15:15:11;3.10;99.90
13589;DHT22;6865;52.552;13.434;2023-11-21T15:17:38;3.10;99.90
13589;DHT22;6865;52.552;13.434;2023-11-21T15:20:10;3.10;99.90
13589;DHT22;6865;52.552;13.434;2023-11-21T15:22:39;3.10;99.90
13589;DHT22;6865;52.552;13.434;2023-11-21T15:25:06;3.20;99.90
13589;DHT22;6865;52.552;13.434;2023-11-21T15:27:36;3.10;99.90
13589;DHT22;6865;52.552;13.434;2023-11-21T15:30:04;3.20;99.90
13589;DHT22;6865;52.552;13.434;2023-11-21T15:32:31;3.20;99.90
13589;DHT22;6865;52.552;13.434;2023-11-21T15:34:58;3.20;99.90
13589;DHT22;6865;52.552;13.434;2023-11-21T15:37:24;3.20;99.90
13589;DHT22;6865;52.552;13.434;2023-11-21T15:39:54;3.20;99.90
13589;DHT22;6865;52.552;13.434;2023-11-21T15:42:21;3.20;99.90
13589;DHT22;6865;52.552;13.434;2023-11-21T15:44:47;3.20;99.90
13589;DHT22;6865;52.552;13.434;2023-11-21T15:47:14;3.20;99.90
13589;DHT22;6865;52.552;13.434;2023-11-21T15:49:41;3.20;99.90
13589;DHT22;6865;52.552;13.434;2023-11-21T15:52:07;3.20;99.90
13589;DHT22;6865;52.552;13.434;2023-11-21T15:54:37;3.20;99.90
13589;DHT22;6865;52.552;13.434;2023-11-21T15:57:04;3.20;99.90
13589;DHT22;6865;52.552;13.434;2023-11-21T15:59:33;3.30;99.90
13589;DHT22;6865;52.552;13.434;2023-11-21T16:02:01;3.40;99.90